WetterOnline ( https://www.wetteronline.de )

Wetter aktuell Westerwald (in 500m)

Aktuelles Wetter: Bad Marienberg (555m)

6-stündlich | Neueste Meldungen
Ortszeit Temperatur Wetter
Di, 20.04. 20:00 11.7° C wolkig
Di, 20.04. 14:00 11.6° C bedeckt
Di, 20.04. 8:00 7.7° C wolkenlos
Di, 20.04. 2:00 6.0° C wolkenlos
Mo, 19.04. 20:00 8.2° C wolkig
Mo, 19.04. 14:00 9.4° C leicht bewölkt
Mo, 19.04. 8:00 4.8° C Sprühregen
Mo, 19.04. 2:00 5.4° C bewölkt
Ortszeit Temperatur Wetter
Di, 20.04. 23:30 9.3° C wolkenlos
Di, 20.04. 23:20 9.3° C wolkenlos
Di, 20.04. 23:10 9.5° C wolkenlos
Di, 20.04. 23:00 9.5° C leicht bewölkt
Di, 20.04. 22:50 9.5° C leicht bewölkt
Di, 20.04. 22:40 9.5° C wolkig
Di, 20.04. 22:30 9.7° C bewölkt
Di, 20.04. 22:00 9.8° C leicht bewölkt
Di, 20.04. 21:30 9.7° C wolkenlos
Di, 20.04. 21:00 10.1° C wolkenlos
Di, 20.04. 20:30 11.0° C leicht bewölkt
Ortszeit Relative Feuchte Sichtweite
Di, 20.04. 20:00 52% 60 km
Di, 20.04. 14:00 54% 45 km
Di, 20.04. 8:00 70% 30 km
Di, 20.04. 2:00 79% 24 km
Mo, 19.04. 20:00 69% 60 km
Mo, 19.04. 14:00 59% 45 km
Mo, 19.04. 8:00 98% 14 km
Mo, 19.04. 2:00 98% 25 km
Ortszeit Relative Feuchte Sichtweite
Di, 20.04. 23:30 72% 35 km
Di, 20.04. 23:20 72% -
Di, 20.04. 23:10 72% -
Di, 20.04. 23:00 72% 40 km
Di, 20.04. 22:50 72% -
Di, 20.04. 22:40 71% -
Di, 20.04. 22:30 69% 35 km
Di, 20.04. 22:00 68% 35 km
Di, 20.04. 21:30 68% 40 km
Di, 20.04. 21:00 66% 40 km
Di, 20.04. 20:30 61% 40 km
Ortszeit Niederschlagsmenge Niederschlagsart
Di, 20.04. 20:00 0.0 l/m2 in 12 Std. -
Di, 20.04. 14:00 0.0 l/m2 in 6 Std. -
Di, 20.04. 8:00 0.0 l/m2 in 12 Std. -
Di, 20.04. 2:00 0.0 l/m2 in 6 Std. -
Mo, 19.04. 20:00 0.1 l/m2 in 12 Std. Regen
Mo, 19.04. 14:00 0.1 l/m2 in 6 Std. Regen
Mo, 19.04. 8:00 3 l/m2 in 12 Std. Regen
Mo, 19.04. 2:00 1 l/m2 in 6 Std. Regen
Ortszeit Niederschlagsmenge Niederschlagsart
Di, 20.04. 23:30 0.0 l/m2 in 1 Std. -
Di, 20.04. 23:20 keine Meldung -
Di, 20.04. 23:10 keine Meldung -
Di, 20.04. 23:00 0.0 l/m2 in 1 Std. -
Di, 20.04. 22:50 keine Meldung -
Di, 20.04. 22:40 keine Meldung -
Di, 20.04. 22:30 0.0 l/m2 in 1 Std. -
Di, 20.04. 22:00 0.0 l/m2 in 1 Std. -
Di, 20.04. 21:30 0.0 l/m2 in 1 Std. -
Di, 20.04. 21:00 0.0 l/m2 in 1 Std. -
Di, 20.04. 20:30 0.0 l/m2 in 1 Std. -
Ortszeit Stärke Spitze Richtung
km/h Bft. km/h Grad Sektor
Di, 20.04. 20:00 9 2 28 300° NW
Di, 20.04. 14:00 6 1 13 300° NW
Di, 20.04. 8:00 6 1 13 40° NO
Di, 20.04. 2:00 7 2 14 110° O
Mo, 19.04. 20:00 9 2 30 80° O
Mo, 19.04. 14:00 17 3 30 110° O
Mo, 19.04. 8:00 6 1 13 20° N
Mo, 19.04. 2:00 7 2 29 30° NO
Ortszeit Stärke Spitze Richtung
km/h Bft. km/h Grad Sektor
Di, 20.04. 23:30 7 2 11 40° NO
Di, 20.04. 23:20 7 2 - 40° NO
Di, 20.04. 23:10 7 2 - 40° NO
Di, 20.04. 23:00 7 2 11 40° NO
Di, 20.04. 22:50 7 2 - 40° NO
Di, 20.04. 22:40 7 2 - 40° NO
Di, 20.04. 22:30 7 2 11 40° NO
Di, 20.04. 22:00 7 2 11 30° NO
Di, 20.04. 21:30 7 2 7 30° NO
Di, 20.04. 21:00 6 1 15 10° N
Di, 20.04. 20:30 7 2 14 20° N
Ortszeit Untergrenze Bedeckung Gattung
total tief tief mittel hoch
Di, 20.04. 20:00 1500 m 6/8 6/8 - - -
Di, 20.04. 14:00 1410 m 8/8 8/8 - - -
Di, 20.04. 8:00 - 0/8 0/8 - - -
Di, 20.04. 2:00 - 0/8 0/8 - - -
Mo, 19.04. 20:00 1800 m 7/8 3/8 - - -
Mo, 19.04. 14:00 1320 m 2/8 2/8 - - -
Mo, 19.04. 8:00 690 m 8/8 8/8 - - -
Mo, 19.04. 2:00 1500 m 8/8 7/8 - - -
Ortszeit Bedeckungsgrad in Achtel und Wolkenuntergrenze
Di, 20.04. 23:30 keine Wolken
Di, 20.04. 23:20 keine Wolken
Di, 20.04. 23:10 keine Wolken
Di, 20.04. 23:00 3(2700m)
Di, 20.04. 22:50 3(2700m)
Di, 20.04. 22:40 6(2700m)
Di, 20.04. 22:30 7(2700m)
Di, 20.04. 22:00 2(2700m)
Di, 20.04. 21:30 keine Wolken
Di, 20.04. 21:00 keine Wolken
Di, 20.04. 20:30 3(1500m)
Ortszeit Luftdruck NN (hPa) Tendenz (hPa in 3 Std.)
Di, 20.04. 20:00 1015 - 0,1
Di, 20.04. 14:00 1017 - 0,4
Di, 20.04. 8:00 1018 - 0,3
Di, 20.04. 2:00 1019 - 0,5
Mo, 19.04. 20:00 1019 + 0,1
Mo, 19.04. 14:00 1019 - 0,4
Mo, 19.04. 8:00 1020 + 0,1
Mo, 19.04. 2:00 1020 - 0,7
Ortszeit Luftdruck NN (hPa) Tendenz (hPa in 3 Std.)
Di, 20.04. 23:30 1016 + 0,3
Di, 20.04. 23:20 1016 keine Meldung
Di, 20.04. 23:10 1016 keine Meldung
Di, 20.04. 23:00 1016 + 0,6
Di, 20.04. 22:50 1016 keine Meldung
Di, 20.04. 22:40 1016 keine Meldung
Di, 20.04. 22:30 1016 + 0,7
Di, 20.04. 22:00 1016 + 0,8
Di, 20.04. 21:30 1016 + 0,7
Di, 20.04. 21:00 1016 + 0,5
Di, 20.04. 20:30 1016 + 0,2
Ortszeit Schneehöhe (cm)
Di, 20.04. 20:00 0
Di, 20.04. 14:00 0
Di, 20.04. 8:00 0
Di, 20.04. 2:00 0
Mo, 19.04. 20:00 0
Mo, 19.04. 14:00 0
Mo, 19.04. 8:00 0
Mo, 19.04. 2:00 0
Ortszeit Schneehöhe (cm)
Di, 20.04. 23:30 0
Di, 20.04. 23:20 0
Di, 20.04. 23:10 0
Di, 20.04. 23:00 0
Di, 20.04. 22:50 0
Di, 20.04. 22:40 0
Di, 20.04. 22:30 0
Di, 20.04. 22:00 0
Di, 20.04. 21:30 0
Di, 20.04. 21:00 0
Di, 20.04. 20:30 0
Link zu dieser Seite / Seite empfehlen

Das Wetter in ...